Time;durP1;ratioP1;P1;durP2;ratioP2;P2;SDS_P1;SDS_P2;PMS_P1;PMS_P2;Temp;Humidity;BMP_temperature;BMP_pressure;BME280_temperature;BME280_humidity;BME280_pressure;Samples;Min_cycle;Max_cycle;Signal;HPM_P1;HPM_P2
2020/12/06 00:01:48;;;;;;;44.57;23.50;;;;;;;;;;5124669;27;20539;-64
2020/12/06 00:04:27;;;;;;;35.40;21.27;;;;;;;;;;5126524;27;20043;-64
2020/12/06 00:06:53;;;;;;;50.43;24.37;;;;;;;;;;5122293;27;20016;-64
2020/12/06 00:09:19;;;;;;;34.83;20.40;;;;;;;;;;5123865;27;20427;-64
2020/12/06 00:11:45;;;;;;;31.80;19.93;;;;;;;;;;5117589;27;20038;-64
2020/12/06 00:14:11;;;;;;;37.97;21.80;;;;;;;;;;5127287;27;20087;-64
2020/12/06 00:16:37;;;;;;;36.97;21.77;;;;;;;;;;5107221;27;20024;-64
2020/12/06 00:19:03;;;;;;;31.83;20.53;;;;;;;;;;5122075;27;20026;-64
2020/12/06 00:21:29;;;;;;;33.97;20.90;;;;;;;;;;5102226;27;20380;-64
2020/12/06 00:23:55;;;;;;;31.93;20.47;;;;;;;;;;5104181;27;20038;-64
2020/12/06 00:26:21;;;;;;;35.27;20.47;;;;;;;;;;5125786;27;20122;-64
2020/12/06 00:28:48;;;;;;;28.67;19.50;;;;;;;;;;5126412;27;20027;-64
2020/12/06 00:31:14;;;;;;;30.37;20.60;;;;;;;;;;5120174;27;20058;-64
2020/12/06 00:33:41;;;;;;;38.93;24.17;;;;;;;;;;5107400;27;20451;-64
2020/12/06 00:36:09;;;;;;;34.00;21.33;;;;;;;;;;5127793;27;20039;-64
2020/12/06 00:38:35;;;;;;;34.90;22.03;;;;;;;;;;5107461;27;20430;-64
2020/12/06 00:41:01;;;;;;;40.17;23.53;;;;;;;;;;5122018;27;20117;-63
2020/12/06 00:43:27;;;;;;;38.10;23.17;;;;;;;;;;5118537;27;20031;-64
2020/12/06 00:45:53;;;;;;;32.53;21.27;;;;;;;;;;5127989;27;20545;-64
2020/12/06 00:48:19;;;;;;;35.23;21.83;;;;;;;;;;5119352;27;20069;-64
2020/12/06 00:50:45;;;;;;;35.37;22.47;;;;;;;;;;5122325;27;20023;-63
2020/12/06 00:53:11;;;;;;;39.63;23.90;;;;;;;;;;5119266;27;20026;-63
2020/12/06 00:55:37;;;;;;;31.10;20.37;;;;;;;;;;5107350;27;20111;-64
2020/12/06 00:58:03;;;;;;;32.00;21.13;;;;;;;;;;5107288;28;20741;-64
2020/12/06 01:00:29;;;;;;;28.47;19.17;;;;;;;;;;5120322;27;20059;-63
2020/12/06 01:02:55;;;;;;;29.43;19.97;;;;;;;;;;5125191;27;20020;-64
2020/12/06 01:05:21;;;;;;;29.63;19.47;;;;;;;;;;5128458;27;20175;-64
2020/12/06 01:07:47;;;;;;;31.77;20.63;;;;;;;;;;5120565;27;20122;-63
2020/12/06 01:10:13;;;;;;;29.63;20.40;;;;;;;;;;5125099;27;20026;-64
2020/12/06 01:12:40;;;;;;;32.53;21.90;;;;;;;;;;5123094;27;20250;-64
2020/12/06 01:15:07;;;;;;;30.97;21.17;;;;;;;;;;5106292;27;20035;-64
2020/12/06 01:17:33;;;;;;;33.97;22.80;;;;;;;;;;5132574;27;20142;-65
2020/12/06 01:19:59;;;;;;;38.47;24.43;;;;;;;;;;5121067;27;20085;-64
2020/12/06 01:22:25;;;;;;;44.47;27.20;;;;;;;;;;5121948;27;20027;-64
2020/12/06 01:24:51;;;;;;;39.87;25.07;;;;;;;;;;5104297;27;20042;-64
2020/12/06 01:27:18;;;;;;;39.27;24.67;;;;;;;;;;5124367;27;20419;-63
2020/12/06 01:29:44;;;;;;;26.33;20.33;;;;;;;;;;5121293;27;20031;-64
2020/12/06 01:32:10;;;;;;;30.83;22.70;;;;;;;;;;5120968;27;20015;-64
2020/12/06 01:34:36;;;;;;;30.83;21.73;;;;;;;;;;5118993;27;20030;-66
2020/12/06 01:37:02;;;;;;;30.47;21.23;;;;;;;;;;5129251;27;20031;-65
2020/12/06 01:39:28;;;;;;;30.37;21.57;;;;;;;;;;5124958;27;20034;-64
2020/12/06 01:41:56;;;;;;;34.33;24.07;;;;;;;;;;5128327;27;20035;-64
2020/12/06 01:44:26;;;;;;;33.97;22.80;;;;;;;;;;5125658;27;20053;-64
2020/12/06 01:46:53;;;;;;;31.97;21.73;;;;;;;;;;5127268;27;20043;-64
2020/12/06 01:49:20;;;;;;;35.53;23.50;;;;;;;;;;5126500;27;20023;-65
2020/12/06 01:51:52;;;;;;;28.50;21.07;;;;;;;;;;5125587;27;20436;-64
2020/12/06 01:54:18;;;;;;;28.57;21.30;;;;;;;;;;5126598;27;20031;-64
2020/12/06 01:56:44;;;;;;;30.47;21.53;;;;;;;;;;5125763;27;20720;-64
2020/12/06 01:59:11;;;;;;;32.20;21.83;;;;;;;;;;5126211;27;20043;-64
2020/12/06 02:01:38;;;;;;;28.73;20.00;;;;;;;;;;5124788;27;20016;-64
2020/12/06 02:04:04;;;;;;;30.43;21.03;;;;;;;;;;5125115;27;20035;-64
2020/12/06 02:06:30;;;;;;;30.93;21.40;;;;;;;;;;5122937;27;20026;-64
2020/12/06 02:08:56;;;;;;;31.63;21.27;;;;;;;;;;5127321;27;20034;-65
2020/12/06 02:11:33;;;;;;;29.77;21.33;;;;;;;;;;5117389;27;20024;-64
2020/12/06 02:13:59;;;;;;;31.67;21.60;;;;;;;;;;5127573;27;20030;-64
2020/12/06 02:16:25;;;;;;;36.50;23.57;;;;;;;;;;5120809;27;20026;-65
2020/12/06 02:18:51;;;;;;;31.13;21.93;;;;;;;;;;5128154;27;20061;-65
2020/12/06 02:21:17;;;;;;;33.87;22.97;;;;;;;;;;5126642;27;20114;-65
2020/12/06 02:23:44;;;;;;;34.33;23.00;;;;;;;;;;5125637;27;20173;-65
2020/12/06 02:26:10;;;;;;;34.00;23.57;;;;;;;;;;5103026;27;20023;-64
2020/12/06 02:28:36;;;;;;;29.07;19.33;;;;;;;;;;5128934;27;20030;-64
2020/12/06 02:31:02;;;;;;;29.90;20.37;;;;;;;;;;5120288;27;20035;-64
2020/12/06 02:33:28;;;;;;;33.57;22.83;;;;;;;;;;5128015;27;20019;-64
2020/12/06 02:35:54;;;;;;;35.27;24.07;;;;;;;;;;5132528;27;20072;-64
2020/12/06 02:38:20;;;;;;;36.20;23.90;;;;;;;;;;5107488;27;20020;-64
2020/12/06 02:40:46;;;;;;;36.60;24.93;;;;;;;;;;5131233;27;20031;-65
2020/12/06 02:43:12;;;;;;;38.60;25.17;;;;;;;;;;5120282;27;20373;-65
2020/12/06 02:45:38;;;;;;;38.00;24.33;;;;;;;;;;5127293;27;20038;-65
2020/12/06 02:48:04;;;;;;;35.00;24.07;;;;;;;;;;5122199;27;20030;-64
2020/12/06 02:50:30;;;;;;;34.27;23.70;;;;;;;;;;5112481;27;20034;-64
2020/12/06 02:52:57;;;;;;;38.00;24.47;;;;;;;;;;5105522;27;20023;-64
2020/12/06 02:55:27;;;;;;;41.37;25.90;;;;;;;;;;5125725;27;20011;-64
2020/12/06 02:57:53;;;;;;;40.10;25.17;;;;;;;;;;5116160;27;20430;-64
2020/12/06 03:00:19;;;;;;;41.83;26.87;;;;;;;;;;5127176;27;20549;-65
2020/12/06 03:02:45;;;;;;;43.10;27.43;;;;;;;;;;5128038;27;20047;-65
2020/12/06 03:05:11;;;;;;;39.57;24.60;;;;;;;;;;5127956;27;20448;-65
2020/12/06 03:07:37;;;;;;;38.33;26.43;;;;;;;;;;5108627;27;20051;-65
2020/12/06 03:10:06;;;;;;;40.80;25.50;;;;;;;;;;5126696;27;20066;-64
2020/12/06 03:12:36;;;;;;;37.07;25.23;;;;;;;;;;5122211;27;20019;-65
2020/12/06 03:15:02;;;;;;;34.33;23.20;;;;;;;;;;5113058;27;20432;-64
2020/12/06 03:17:28;;;;;;;30.07;20.80;;;;;;;;;;5125943;27;20065;-65
2020/12/06 03:19:54;;;;;;;29.60;20.63;;;;;;;;;;5124465;27;20086;-64
2020/12/06 03:22:20;;;;;;;27.07;19.43;;;;;;;;;;5127787;27;20065;-64
2020/12/06 03:24:46;;;;;;;24.83;19.40;;;;;;;;;;5122932;27;20373;-64
2020/12/06 03:27:12;;;;;;;29.33;21.67;;;;;;;;;;5132084;27;20029;-64
2020/12/06 03:29:38;;;;;;;27.00;20.63;;;;;;;;;;5121281;27;20443;-64
2020/12/06 03:32:04;;;;;;;26.73;19.63;;;;;;;;;;5127607;27;20026;-64
2020/12/06 03:34:30;;;;;;;25.87;18.93;;;;;;;;;;5121237;27;20019;-63
2020/12/06 03:36:56;;;;;;;23.90;16.97;;;;;;;;;;5110859;27;20458;-64
2020/12/06 03:39:22;;;;;;;23.60;17.67;;;;;;;;;;5123427;27;20110;-64
2020/12/06 03:41:48;;;;;;;20.37;15.67;;;;;;;;;;5119902;27;20110;-64
2020/12/06 03:44:14;;;;;;;19.40;16.03;;;;;;;;;;5119746;27;20038;-64
2020/12/06 03:46:40;;;;;;;22.17;17.47;;;;;;;;;;5125620;27;20528;-64
2020/12/06 03:49:06;;;;;;;23.07;16.83;;;;;;;;;;5120505;27;20122;-64
2020/12/06 03:51:32;;;;;;;25.30;18.13;;;;;;;;;;5124315;27;20152;-64
2020/12/06 03:53:58;;;;;;;25.33;18.27;;;;;;;;;;5119128;27;20476;-63
2020/12/06 03:56:24;;;;;;;23.43;17.90;;;;;;;;;;5125997;27;20141;-65
2020/12/06 03:58:50;;;;;;;21.87;17.50;;;;;;;;;;5124730;27;20055;-65
2020/12/06 04:01:16;;;;;;;21.53;16.07;;;;;;;;;;5116002;27;20763;-64
2020/12/06 04:03:42;;;;;;;22.47;16.53;;;;;;;;;;5122134;27;20043;-64
2020/12/06 04:06:08;;;;;;;25.97;17.20;;;;;;;;;;5118966;27;20015;-64
2020/12/06 04:08:34;;;;;;;26.20;18.77;;;;;;;;;;5123511;27;20119;-64
2020/12/06 04:11:00;;;;;;;27.80;19.17;;;;;;;;;;5121080;27;20027;-64
2020/12/06 04:13:26;;;;;;;27.43;18.93;;;;;;;;;;5127361;27;20022;-64
2020/12/06 04:15:52;;;;;;;26.63;17.93;;;;;;;;;;5121220;27;20027;-65
2020/12/06 04:18:18;;;;;;;30.27;19.83;;;;;;;;;;5123345;27;20111;-65
2020/12/06 04:20:44;;;;;;;30.67;19.13;;;;;;;;;;5099570;27;20027;-65
2020/12/06 04:23:10;;;;;;;32.30;21.77;;;;;;;;;;5122915;27;20058;-65
2020/12/06 04:25:36;;;;;;;35.23;21.40;;;;;;;;;;5114529;27;20438;-65
2020/12/06 04:28:02;;;;;;;31.37;19.80;;;;;;;;;;5120715;27;20019;-65
2020/12/06 04:30:28;;;;;;;31.47;20.07;;;;;;;;;;5120682;27;20023;-66
2020/12/06 04:32:54;;;;;;;30.67;20.07;;;;;;;;;;5125536;27;20435;-65
2020/12/06 04:35:21;;;;;;;39.77;23.27;;;;;;;;;;5122352;27;20027;-65
2020/12/06 04:37:47;;;;;;;33.80;22.17;;;;;;;;;;5122764;27;20027;-65
2020/12/06 04:40:13;;;;;;;34.20;21.87;;;;;;;;;;5104997;27;20492;-65
2020/12/06 04:42:40;;;;;;;33.20;22.30;;;;;;;;;;5123671;27;20067;-65
2020/12/06 04:45:06;;;;;;;32.93;21.27;;;;;;;;;;5108270;27;20039;-65
2020/12/06 04:47:38;;;;;;;31.03;19.00;;;;;;;;;;5105842;27;20071;-65
2020/12/06 04:50:05;;;;;;;37.00;21.10;;;;;;;;;;5109525;27;20035;-65
2020/12/06 04:52:37;;;;;;;31.00;19.53;;;;;;;;;;5118430;27;20019;-65
2020/12/06 04:55:06;;;;;;;32.93;20.90;;;;;;;;;;5125752;27;20337;-66
2020/12/06 04:57:37;;;;;;;27.70;20.10;;;;;;;;;;5118211;27;20058;-66
2020/12/06 05:00:10;;;;;;;30.43;20.23;;;;;;;;;;5129509;27;20023;-65
2020/12/06 05:02:39;;;;;;;28.47;20.73;;;;;;;;;;5119677;27;20057;-65
2020/12/06 05:05:06;;;;;;;28.07;19.57;;;;;;;;;;5123784;27;20043;-66
2020/12/06 05:07:32;;;;;;;29.50;19.43;;;;;;;;;;5121096;27;20023;-66
2020/12/06 05:09:58;;;;;;;29.03;18.43;;;;;;;;;;5121392;27;20026;-64
2020/12/06 05:12:25;;;;;;;27.73;17.77;;;;;;;;;;5125473;27;20055;-64
2020/12/06 05:14:51;;;;;;;29.80;19.27;;;;;;;;;;5113914;27;20554;-63
2020/12/06 05:17:17;;;;;;;27.30;18.50;;;;;;;;;;5108540;27;20019;-63
2020/12/06 05:19:43;;;;;;;29.80;19.07;;;;;;;;;;5129094;27;20174;-63
2020/12/06 05:22:10;;;;;;;27.70;18.50;;;;;;;;;;5127542;27;20060;-63
2020/12/06 05:24:36;;;;;;;32.83;19.53;;;;;;;;;;5126469;27;20031;-65
2020/12/06 05:27:03;;;;;;;28.60;19.10;;;;;;;;;;5128590;27;20019;-64
2020/12/06 05:29:29;;;;;;;29.63;18.87;;;;;;;;;;5125573;27;20038;-64
2020/12/06 05:31:56;;;;;;;26.77;17.87;;;;;;;;;;5130244;27;20083;-64
2020/12/06 05:34:23;;;;;;;29.47;18.90;;;;;;;;;;5112836;27;20598;-64
2020/12/06 05:36:49;;;;;;;28.63;18.60;;;;;;;;;;5115754;27;20380;-65
2020/12/06 05:39:15;;;;;;;28.23;19.10;;;;;;;;;;5124172;27;20023;-64
2020/12/06 05:41:44;;;;;;;29.23;19.07;;;;;;;;;;5126960;27;20067;-64
2020/12/06 05:44:10;;;;;;;34.13;21.00;;;;;;;;;;5121153;27;20035;-64
2020/12/06 05:46:37;;;;;;;28.37;19.33;;;;;;;;;;5130072;27;20026;-64
2020/12/06 05:49:04;;;;;;;26.87;18.97;;;;;;;;;;5118043;27;20096;-64
2020/12/06 05:51:30;;;;;;;28.83;19.33;;;;;;;;;;5130294;27;20018;-64
2020/12/06 05:53:57;;;;;;;38.27;21.70;;;;;;;;;;5121052;27;20046;-65
2020/12/06 05:56:23;;;;;;;32.67;20.60;;;;;;;;;;5128798;27;20091;-65
2020/12/06 05:58:50;;;;;;;33.97;21.10;;;;;;;;;;5106376;27;20053;-65
2020/12/06 06:01:17;;;;;;;37.30;20.77;;;;;;;;;;5105946;27;20439;-64
2020/12/06 06:03:44;;;;;;;30.97;20.03;;;;;;;;;;5103436;28;20055;-64
2020/12/06 06:06:16;;;;;;;30.50;20.53;;;;;;;;;;5109389;27;20028;-64
2020/12/06 06:08:45;;;;;;;32.00;20.00;;;;;;;;;;5102311;27;20032;-64
2020/12/06 06:11:19;;;;;;;33.17;19.20;;;;;;;;;;5101847;27;20036;-64
2020/12/06 06:13:53;;;;;;;30.40;17.52;;;;;;;;;;5105272;28;20028;-64
2020/12/06 06:16:20;;;;;;;31.73;18.50;;;;;;;;;;5116946;27;20108;-64
2020/12/06 06:18:47;;;;;;;35.63;20.60;;;;;;;;;;5107596;27;20145;-64
2020/12/06 06:21:13;;;;;;;31.40;19.23;;;;;;;;;;5105062;28;20031;-64
2020/12/06 06:23:40;;;;;;;29.87;18.33;;;;;;;;;;5104822;27;20499;-64
2020/12/06 06:26:07;;;;;;;25.53;17.07;;;;;;;;;;5106439;27;20032;-64
2020/12/06 06:28:36;;;;;;;28.30;18.20;;;;;;;;;;5106982;27;20027;-65
2020/12/06 06:31:02;;;;;;;29.50;18.63;;;;;;;;;;5102051;27;20397;-64
2020/12/06 06:33:28;;;;;;;30.17;18.73;;;;;;;;;;5106932;27;20050;-64
2020/12/06 06:35:55;;;;;;;30.53;18.27;;;;;;;;;;5102076;27;20039;-64
2020/12/06 06:38:21;;;;;;;31.13;18.40;;;;;;;;;;5105723;27;20111;-64
2020/12/06 06:40:48;;;;;;;24.60;17.00;;;;;;;;;;5103459;27;20547;-64
2020/12/06 06:43:17;;;;;;;30.03;19.27;;;;;;;;;;5106799;27;20473;-63
2020/12/06 06:45:46;;;;;;;28.23;18.37;;;;;;;;;;5098573;28;20046;-65
2020/12/06 06:48:16;;;;;;;25.63;17.60;;;;;;;;;;5104027;27;20020;-64
2020/12/06 06:50:42;;;;;;;25.47;16.43;;;;;;;;;;5107229;27;20035;-64
2020/12/06 06:53:09;;;;;;;34.00;19.90;;;;;;;;;;5102750;27;20463;-64
2020/12/06 06:55:51;;;;;;;25.03;18.37;;;;;;;;;;5106014;27;20027;-64
2020/12/06 06:58:22;;;;;;;24.07;15.20;;;;;;;;;;5105063;27;20051;-64
2020/12/06 07:00:48;;;;;;;25.07;16.77;;;;;;;;;;5106027;27;20020;-64
2020/12/06 07:03:15;;;;;;;26.13;15.97;;;;;;;;;;5123400;27;20522;-64
2020/12/06 07:05:41;;;;;;;24.77;15.70;;;;;;;;;;5125475;27;20476;-65
2020/12/06 07:08:11;;;;;;;23.73;15.80;;;;;;;;;;5122274;27;20039;-64
2020/12/06 07:10:38;;;;;;;28.93;16.90;;;;;;;;;;5127997;27;20035;-64
2020/12/06 07:13:06;;;;;;;21.57;15.37;;;;;;;;;;5126552;27;20110;-64
2020/12/06 07:15:32;;;;;;;24.40;16.23;;;;;;;;;;5130381;27;20512;-64
2020/12/06 07:17:58;;;;;;;20.80;14.20;;;;;;;;;;5123869;27;20035;-64
2020/12/06 07:20:25;;;;;;;27.20;16.83;;;;;;;;;;5126388;27;20498;-64
2020/12/06 07:22:52;;;;;;;23.07;14.93;;;;;;;;;;5119245;27;20050;-64
2020/12/06 07:25:19;;;;;;;24.37;15.97;;;;;;;;;;5127704;27;20031;-64
2020/12/06 07:27:45;;;;;;;25.23;17.77;;;;;;;;;;5106247;27;20026;-64
2020/12/06 07:30:12;;;;;;;25.53;17.07;;;;;;;;;;5123540;27;20088;-64
2020/12/06 07:32:38;;;;;;;23.80;16.93;;;;;;;;;;5120755;27;20023;-64
2020/12/06 07:35:05;;;;;;;23.37;16.93;;;;;;;;;;5124241;27;20540;-64
2020/12/06 07:37:31;;;;;;;26.50;17.20;;;;;;;;;;5127864;27;20035;-64
2020/12/06 07:39:57;;;;;;;23.60;16.47;;;;;;;;;;5124901;27;20109;-64
2020/12/06 07:42:25;;;;;;;20.50;15.13;;;;;;;;;;5129698;27;20493;-64
2020/12/06 07:44:52;;;;;;;20.13;14.57;;;;;;;;;;5104530;27;20122;-65
2020/12/06 07:47:19;;;;;;;25.33;17.93;;;;;;;;;;5130141;27;20362;-64
2020/12/06 07:49:49;;;;;;;21.47;15.07;;;;;;;;;;5124004;27;20393;-64
2020/12/06 07:52:16;;;;;;;21.00;15.00;;;;;;;;;;5123780;27;20023;-65
2020/12/06 07:54:51;;;;;;;19.67;14.70;;;;;;;;;;5122659;27;20020;-64
2020/12/06 07:57:18;;;;;;;21.55;14.75;;;;;;;;;;5125844;27;20071;-64
2020/12/06 07:59:44;;;;;;;18.37;13.57;;;;;;;;;;5118579;27;20508;-64
2020/12/06 08:02:11;;;;;;;19.23;14.43;;;;;;;;;;5125963;27;20038;-64
2020/12/06 08:04:37;;;;;;;23.17;16.03;;;;;;;;;;5123969;27;20027;-64
2020/12/06 08:07:09;;;;;;;21.10;15.43;;;;;;;;;;5129057;27;20554;-64
2020/12/06 08:09:36;;;;;;;17.90;13.33;;;;;;;;;;5107112;27;20027;-64
2020/12/06 08:12:04;;;;;;;19.80;14.33;;;;;;;;;;5107955;27;20518;-64
2020/12/06 08:14:30;;;;;;;21.27;15.43;;;;;;;;;;5123839;27;20030;-64
2020/12/06 08:16:57;;;;;;;20.57;14.73;;;;;;;;;;5128149;27;20023;-64
2020/12/06 08:19:24;;;;;;;22.17;15.63;;;;;;;;;;5123822;27;20094;-64
2020/12/06 08:21:50;;;;;;;21.30;15.50;;;;;;;;;;5125781;27;20026;-64
2020/12/06 08:24:19;;;;;;;23.77;16.53;;;;;;;;;;5125419;27;20492;-64
2020/12/06 08:26:46;;;;;;;24.37;17.03;;;;;;;;;;5118168;27;20015;-64
2020/12/06 08:29:12;;;;;;;23.53;16.53;;;;;;;;;;5123767;27;20098;-64
2020/12/06 08:31:38;;;;;;;20.97;15.67;;;;;;;;;;5121507;27;20015;-64
2020/12/06 08:34:11;;;;;;;20.00;15.47;;;;;;;;;;5108010;27;20026;-64
2020/12/06 08:36:37;;;;;;;21.17;15.20;;;;;;;;;;5121097;27;20039;-64
2020/12/06 08:39:14;;;;;;;20.03;14.30;;;;;;;;;;5121592;27;20038;-64
2020/12/06 08:41:40;;;;;;;18.13;14.00;;;;;;;;;;5117862;27;20019;-64
2020/12/06 08:44:06;;;;;;;18.67;13.57;;;;;;;;;;5128669;27;20050;-64
2020/12/06 08:46:32;;;;;;;21.63;16.17;;;;;;;;;;5123814;27;20019;-64
2020/12/06 08:49:00;;;;;;;23.13;16.67;;;;;;;;;;5123270;27;20050;-64
2020/12/06 08:51:38;;;;;;;18.87;15.73;;;;;;;;;;5123837;27;20015;-64
2020/12/06 08:54:06;;;;;;;21.43;15.47;;;;;;;;;;5125707;27;20117;-64
2020/12/06 08:56:40;;;;;;;21.53;15.77;;;;;;;;;;5119465;27;20024;-64
2020/12/06 08:59:09;;;;;;;22.43;16.00;;;;;;;;;;5121658;27;20487;-64
2020/12/06 09:01:54;;;;;;;21.60;15.00;;;;;;;;;;5117508;27;20499;-65
2020/12/06 09:04:22;;;;;;;20.05;14.88;;;;;;;;;;5126948;27;20480;-65
2020/12/06 09:06:50;;;;;;;20.73;14.90;;;;;;;;;;5119597;27;20050;-65
2020/12/06 09:09:16;;;;;;;21.77;15.90;;;;;;;;;;5123387;27;20054;-65
2020/12/06 09:11:42;;;;;;;21.53;16.37;;;;;;;;;;5123274;27;20027;-64
2020/12/06 09:14:08;;;;;;;25.20;17.80;;;;;;;;;;5122188;27;20101;-65
2020/12/06 09:16:34;;;;;;;22.53;16.80;;;;;;;;;;5118460;27;20177;-65
2020/12/06 09:19:01;;;;;;;26.23;18.30;;;;;;;;;;5121418;27;20147;-64
2020/12/06 09:21:28;;;;;;;24.07;16.80;;;;;;;;;;5124381;27;20031;-65
2020/12/06 09:23:54;;;;;;;23.60;16.80;;;;;;;;;;5104380;27;20492;-63
2020/12/06 09:26:20;;;;;;;26.00;18.43;;;;;;;;;;5125881;27;20160;-64
2020/12/06 09:28:46;;;;;;;25.50;17.10;;;;;;;;;;5119965;27;20063;-64
2020/12/06 09:31:13;;;;;;;25.53;18.13;;;;;;;;;;5108614;27;20115;-64
2020/12/06 09:33:39;;;;;;;25.10;17.97;;;;;;;;;;5118294;27;20487;-65
2020/12/06 09:36:05;;;;;;;30.90;19.70;;;;;;;;;;5128664;27;20160;-64
2020/12/06 09:38:32;;;;;;;31.37;19.63;;;;;;;;;;5123378;27;20035;-64
2020/12/06 09:40:58;;;;;;;32.33;20.33;;;;;;;;;;5125963;27;20022;-64
2020/12/06 09:43:24;;;;;;;33.90;20.53;;;;;;;;;;5119628;27;20226;-64
2020/12/06 09:45:51;;;;;;;33.97;20.37;;;;;;;;;;5122315;27;20055;-64
2020/12/06 09:48:17;;;;;;;33.10;20.13;;;;;;;;;;5118817;27;20034;-64
2020/12/06 09:50:43;;;;;;;32.20;20.03;;;;;;;;;;5123871;27;20373;-64
2020/12/06 09:53:10;;;;;;;39.33;22.50;;;;;;;;;;5100846;27;20380;-64
2020/12/06 09:55:36;;;;;;;35.30;22.30;;;;;;;;;;5121841;27;20066;-64
2020/12/06 09:58:02;;;;;;;38.57;22.77;;;;;;;;;;5124880;27;20841;-64
2020/12/06 10:00:28;;;;;;;37.70;22.60;;;;;;;;;;5119627;27;20034;-64
2020/12/06 10:02:54;;;;;;;37.47;22.03;;;;;;;;;;5128519;27;20084;-64
2020/12/06 10:05:21;;;;;;;40.57;25.13;;;;;;;;;;5111896;27;20122;-65
2020/12/06 10:07:47;;;;;;;33.37;21.30;;;;;;;;;;5127486;27;20023;-64
2020/12/06 10:10:14;;;;;;;37.60;22.07;;;;;;;;;;5125421;27;20076;-64
2020/12/06 10:12:40;;;;;;;40.17;21.93;;;;;;;;;;5127116;27;20098;-64
2020/12/06 10:15:06;;;;;;;37.03;22.07;;;;;;;;;;5124418;27;20123;-64
2020/12/06 10:17:32;;;;;;;38.60;22.00;;;;;;;;;;5124635;27;20023;-64
2020/12/06 10:19:58;;;;;;;39.17;21.90;;;;;;;;;;5121465;27;20042;-64
2020/12/06 10:22:25;;;;;;;34.00;20.93;;;;;;;;;;5122028;27;20053;-65
2020/12/06 10:24:51;;;;;;;38.67;21.23;;;;;;;;;;5112003;27;20070;-64
2020/12/06 10:27:16;;;;;;;34.83;21.33;;;;;;;;;;5126128;27;20046;-64
2020/12/06 10:29:42;;;;;;;31.93;20.27;;;;;;;;;;5121690;27;20812;-64
2020/12/06 10:32:08;;;;;;;30.67;19.33;;;;;;;;;;5124986;27;20054;-64
2020/12/06 10:34:35;;;;;;;36.60;22.07;;;;;;;;;;5104354;27;20126;-63
2020/12/06 10:37:01;;;;;;;41.73;23.10;;;;;;;;;;5109868;27;20027;-64
2020/12/06 10:39:27;;;;;;;39.83;24.07;;;;;;;;;;5123788;27;20076;-64
2020/12/06 10:41:56;;;;;;;36.83;22.13;;;;;;;;;;5118208;27;20038;-64
2020/12/06 10:44:23;;;;;;;39.73;22.23;;;;;;;;;;5123791;27;20039;-64
2020/12/06 10:46:49;;;;;;;40.40;21.97;;;;;;;;;;5120443;27;20029;-63
2020/12/06 10:49:15;;;;;;;49.20;27.37;;;;;;;;;;5107306;27;20046;-63
2020/12/06 10:51:42;;;;;;;49.20;27.90;;;;;;;;;;5122495;27;20023;-64
2020/12/06 10:54:08;;;;;;;47.30;28.00;;;;;;;;;;5113852;27;20035;-64
2020/12/06 10:56:36;;;;;;;47.90;28.30;;;;;;;;;;5125379;27;20068;-64
2020/12/06 10:59:02;;;;;;;52.60;28.60;;;;;;;;;;5127739;27;20050;-64
2020/12/06 11:01:29;;;;;;;56.43;30.37;;;;;;;;;;5103639;27;20026;-64
2020/12/06 11:03:55;;;;;;;55.13;30.10;;;;;;;;;;5128109;27;20691;-64
2020/12/06 11:06:21;;;;;;;62.80;31.30;;;;;;;;;;5117736;27;20520;-64
2020/12/06 11:08:47;;;;;;;51.20;29.07;;;;;;;;;;5122902;27;20399;-64
2020/12/06 11:11:14;;;;;;;51.50;29.97;;;;;;;;;;5118314;27;20104;-64
2020/12/06 11:13:40;;;;;;;55.03;30.50;;;;;;;;;;5126974;27;20023;-64
2020/12/06 11:16:06;;;;;;;52.83;29.30;;;;;;;;;;5130957;27;20114;-64
2020/12/06 11:18:33;;;;;;;50.27;28.50;;;;;;;;;;5124451;27;20023;-64
2020/12/06 11:20:59;;;;;;;50.07;27.40;;;;;;;;;;5124152;27;20019;-64
2020/12/06 11:23:25;;;;;;;48.90;27.93;;;;;;;;;;5122433;27;20030;-64
2020/12/06 11:25:51;;;;;;;49.00;27.03;;;;;;;;;;5124862;27;20032;-64
2020/12/06 11:28:17;;;;;;;53.97;28.07;;;;;;;;;;5118689;27;20144;-64
2020/12/06 11:30:43;;;;;;;47.17;26.53;;;;;;;;;;5121581;27;20059;-64
2020/12/06 11:33:09;;;;;;;51.03;27.57;;;;;;;;;;5119084;27;20051;-64
2020/12/06 11:35:35;;;;;;;47.50;23.83;;;;;;;;;;5122438;27;20031;-64
2020/12/06 11:38:01;;;;;;;51.53;24.10;;;;;;;;;;5119551;27;20039;-65
2020/12/06 11:40:27;;;;;;;47.27;24.97;;;;;;;;;;5125971;27;20030;-64
2020/12/06 11:42:53;;;;;;;51.13;25.97;;;;;;;;;;5123522;27;20023;-65
2020/12/06 11:45:19;;;;;;;48.30;26.07;;;;;;;;;;5121683;27;20053;-64
2020/12/06 11:47:45;;;;;;;45.87;25.13;;;;;;;;;;5122616;27;20054;-64
2020/12/06 11:50:11;;;;;;;50.13;26.80;;;;;;;;;;5119639;27;20530;-63
2020/12/06 11:52:37;;;;;;;46.33;26.40;;;;;;;;;;5121418;27;20068;-63
2020/12/06 11:55:03;;;;;;;54.40;27.50;;;;;;;;;;5105084;27;20030;-63
2020/12/06 11:57:29;;;;;;;46.13;25.67;;;;;;;;;;5126215;27;20031;-63
2020/12/06 11:59:55;;;;;;;49.40;26.33;;;;;;;;;;5121094;27;20047;-64
2020/12/06 12:02:21;;;;;;;49.83;26.13;;;;;;;;;;5124856;27;20431;-64
2020/12/06 12:04:49;;;;;;;45.63;25.93;;;;;;;;;;5118250;27;20039;-63
2020/12/06 12:07:18;;;;;;;44.07;24.43;;;;;;;;;;5125623;27;20051;-63
2020/12/06 12:09:44;;;;;;;55.50;27.30;;;;;;;;;;5125068;27;20035;-63
2020/12/06 12:12:10;;;;;;;46.37;24.80;;;;;;;;;;5108620;27;20037;-63
2020/12/06 12:14:36;;;;;;;51.63;26.37;;;;;;;;;;5122431;27;20029;-64
2020/12/06 12:17:02;;;;;;;51.80;26.33;;;;;;;;;;5129974;27;20111;-63
2020/12/06 12:19:28;;;;;;;48.63;25.63;;;;;;;;;;5118828;27;20476;-63
2020/12/06 12:21:54;;;;;;;45.27;25.57;;;;;;;;;;5124136;27;20062;-64
2020/12/06 12:24:20;;;;;;;48.63;26.20;;;;;;;;;;5120472;27;20058;-63
2020/12/06 12:26:46;;;;;;;50.47;25.47;;;;;;;;;;5127248;27;20125;-63
2020/12/06 12:29:12;;;;;;;48.73;25.03;;;;;;;;;;5108017;27;20027;-63
2020/12/06 12:31:38;;;;;;;50.77;27.77;;;;;;;;;;5123862;27;20016;-64
2020/12/06 12:34:04;;;;;;;53.67;28.57;;;;;;;;;;5124340;27;20061;-63
2020/12/06 12:36:30;;;;;;;44.17;24.73;;;;;;;;;;5122658;27;20030;-63
2020/12/06 12:38:56;;;;;;;39.23;22.90;;;;;;;;;;5126739;27;20184;-63
2020/12/06 12:41:22;;;;;;;52.83;26.17;;;;;;;;;;5107029;27;20024;-63
2020/12/06 12:43:48;;;;;;;50.67;25.90;;;;;;;;;;5124413;27;20031;-63
2020/12/06 12:46:14;;;;;;;52.10;26.63;;;;;;;;;;5122430;27;20034;-63
2020/12/06 12:48:40;;;;;;;48.03;26.53;;;;;;;;;;5105920;27;20039;-63
2020/12/06 12:51:06;;;;;;;50.27;25.30;;;;;;;;;;5105421;28;21279;-64
2020/12/06 12:53:32;;;;;;;44.23;25.00;;;;;;;;;;5122794;27;20034;-63
2020/12/06 12:55:58;;;;;;;47.00;23.63;;;;;;;;;;5120949;27;20023;-63
2020/12/06 12:58:24;;;;;;;53.73;26.23;;;;;;;;;;5118996;27;20370;-62
2020/12/06 13:00:50;;;;;;;48.20;25.13;;;;;;;;;;5117685;27;20046;-64
2020/12/06 13:03:18;;;;;;;45.10;24.13;;;;;;;;;;5121779;27;20028;-64
2020/12/06 13:05:44;;;;;;;44.97;23.07;;;;;;;;;;5118121;27;20433;-64
2020/12/06 13:08:12;;;;;;;48.63;24.63;;;;;;;;;;5117327;27;20035;-64
2020/12/06 13:10:39;;;;;;;46.30;23.53;;;;;;;;;;5107639;27;20486;-64
2020/12/06 13:13:05;;;;;;;56.03;24.97;;;;;;;;;;5119277;27;20023;-65
2020/12/06 13:15:31;;;;;;;52.57;25.43;;;;;;;;;;5125085;27;20042;-64
2020/12/06 13:17:57;;;;;;;46.87;22.43;;;;;;;;;;5118619;27;20083;-65
2020/12/06 13:20:23;;;;;;;51.53;24.80;;;;;;;;;;5123488;27;20098;-65
2020/12/06 13:22:49;;;;;;;49.20;23.70;;;;;;;;;;5117773;27;20055;-65
2020/12/06 13:25:15;;;;;;;43.77;24.77;;;;;;;;;;5105799;27;20039;-65
2020/12/06 13:27:41;;;;;;;45.43;23.97;;;;;;;;;;5122769;27;20536;-65
2020/12/06 13:30:07;;;;;;;43.53;21.97;;;;;;;;;;5126597;27;20023;-65
2020/12/06 13:32:33;;;;;;;44.60;24.00;;;;;;;;;;5107619;27;20065;-65
2020/12/06 13:34:59;;;;;;;42.43;24.27;;;;;;;;;;5125149;27;20103;-65
2020/12/06 13:37:25;;;;;;;48.97;24.23;;;;;;;;;;5124982;27;20113;-65
2020/12/06 13:39:51;;;;;;;51.07;25.23;;;;;;;;;;5109325;27;20054;-65
2020/12/06 13:42:17;;;;;;;43.73;22.80;;;;;;;;;;5122402;27;22611;-65
2020/12/06 13:44:43;;;;;;;45.60;25.37;;;;;;;;;;5125532;27;20049;-65
2020/12/06 13:47:09;;;;;;;43.80;23.27;;;;;;;;;;5126992;27;20057;-65
2020/12/06 13:49:40;;;;;;;46.93;23.60;;;;;;;;;;5122937;27;20034;-66
2020/12/06 13:52:06;;;;;;;45.87;23.97;;;;;;;;;;5129512;27;20031;-65
2020/12/06 13:54:32;;;;;;;47.17;22.43;;;;;;;;;;5106983;27;20039;-65
2020/12/06 13:56:58;;;;;;;40.03;22.13;;;;;;;;;;5130401;27;20064;-65
2020/12/06 13:59:24;;;;;;;49.63;22.23;;;;;;;;;;5123023;27;20039;-65
2020/12/06 14:01:50;;;;;;;49.23;23.03;;;;;;;;;;5124963;27;20462;-66
2020/12/06 14:04:17;;;;;;;37.57;21.67;;;;;;;;;;5126273;27;20031;-65
2020/12/06 14:06:43;;;;;;;44.83;21.60;;;;;;;;;;5124534;27;21074;-66
2020/12/06 14:09:09;;;;;;;41.30;21.53;;;;;;;;;;5108456;27;20038;-66
2020/12/06 14:11:35;;;;;;;35.90;19.70;;;;;;;;;;5123207;27;20321;-64
2020/12/06 14:14:01;;;;;;;35.33;19.40;;;;;;;;;;5122171;27;20019;-66